Heydar Aliyev International Airport

UBBB · Baki, 阿塞拜疆

罗盘
风向 的 风向 060° 盖达尔·阿利耶夫国际机场 16/34
风: 8 kt, 3 beaufort

2 kt

8 kt
改变
0 1.000 2.000 3.000 4.000 5.000
OVC 3.000 ft
METAR UBBB 081900Z 06008KT 9999 OVC030 06/00 Q1032 NOSIG

METAR 盖达尔·阿利耶夫国际机场 - UBBB/GYD

盖达尔·阿利耶夫国际机场是,阿塞拜疆中的大型机场。 该机场有2条跑道: 16/34 和 17/35. 该领域的国际民航组织标志是UBBB 它的国际航空运输协会代码是GYD.

这份报告是针对2022年12月8日 23:00, 当地时间在盖达尔·阿利耶夫国际机场进行的。

机场观察

风向为060°,速度为8 kt。

可见度为10 km 或者更多。

有乌云密布在3.000 ft的高度。 破损或更高的上限为3.000 ft。

温度为6 °C,阵风为2 °C。 海平面上的气压为1032 hPa (QNH)。

白天

今天,太阳从07:50升起,在17:13降落。 这适用于盖达尔·阿利耶夫国际机场,世界夏令时可能有所不同。 当地时间与世界标准时间之间的时差为+4 小时。 当前,没有夏令时有效。

公司介绍

我们没有关于这个机场的公司信息。

体会

到Vliegles.nl去找飞行课程,跳伞和其他飞行体验。 浏览页面,了解盖达尔·阿利耶夫国际机场附近所有可用的活动。 你也可以使用搜索功能来寻找你所在地附近的特定飞行课程、跳伞或其他飞行体验。

跑道

Id 标题 侧风 逆风 侧风 %
16/34 167°-347° 8 kt 2 kt 96 %
17/35 179°-359° 7 kt 4 kt 87 %

逆风成分最大的方向会被突出显示,并用于横风计算。 这并不一定意味着这个方向在使用。

乌云

3.000 ft OVC 乌云密布

温度 & 天气

温度 6 °C
露点 0 °C
相对湿度 66%
风寒 2 °C
Kp-index 2 (0-9)

白天

日出
07:50 (8:26)
中午
12:31
日落
17:13

小工具

你想在你的网站上有一个关于盖达尔·阿利耶夫国际机场的当前航空天气(METAR)的小部件吗?

显示HTML代码

我们和第三方通过cookies跟踪您在我们网站上的互联网行为。如果你继续,我们认为你同意我们的饼干政策